sensor_id;sensor_type;location;lat;lon;timestamp;P1;durP1;ratioP1;P2;durP2;ratioP2
49422;SDS011;36998;51.974;20.150;2022-08-19T20:16:14;11.00;;;5.38;;
49422;SDS011;36998;51.974;20.150;2022-08-19T20:18:40;13.80;;;5.97;;
49422;SDS011;36998;51.974;20.150;2022-08-19T20:21:08;9.35;;;5.28;;
49422;SDS011;36998;51.974;20.150;2022-08-19T20:23:33;11.82;;;5.95;;
49422;SDS011;36998;51.974;20.150;2022-08-19T20:26:01;13.52;;;5.30;;
49422;SDS011;36998;51.974;20.150;2022-08-19T20:28:27;14.52;;;5.53;;
49422;SDS011;36998;51.974;20.150;2022-08-19T20:30:52;11.95;;;5.28;;
49422;SDS011;36998;51.974;20.150;2022-08-19T20:33:18;10.07;;;5.47;;
49422;SDS011;36998;51.974;20.150;2022-08-19T20:35:43;7.75;;;5.22;;
49422;SDS011;36998;51.974;20.150;2022-08-19T20:38:10;11.13;;;5.88;;
49422;SDS011;36998;51.974;20.150;2022-08-19T20:40:36;7.75;;;5.38;;
49422;SDS011;36998;51.974;20.150;2022-08-19T20:43:07;7.13;;;4.95;;
49422;SDS011;36998;51.974;20.150;2022-08-19T20:45:34;9.95;;;5.60;;
49422;SDS011;36998;51.974;20.150;2022-08-19T20:48:02;8.90;;;5.35;;
49422;SDS011;36998;51.974;20.150;2022-08-19T20:50:32;7.63;;;5.68;;
49422;SDS011;36998;51.974;20.150;2022-08-19T20:53:08;8.95;;;5.60;;
49422;SDS011;36998;51.974;20.150;2022-08-19T20:55:36;12.07;;;6.05;;
49422;SDS011;36998;51.974;20.150;2022-08-19T20:58:13;13.43;;;6.60;;
49422;SDS011;36998;51.974;20.150;2022-08-19T21:00:39;13.98;;;5.72;;
49422;SDS011;36998;51.974;20.150;2022-08-19T21:03:07;14.15;;;6.50;;
49422;SDS011;36998;51.974;20.150;2022-08-19T21:05:33;14.60;;;5.78;;
49422;SDS011;36998;51.974;20.150;2022-08-19T21:07:58;9.32;;;5.68;;
49422;SDS011;36998;51.974;20.150;2022-08-19T21:10:24;9.77;;;5.25;;
49422;SDS011;36998;51.974;20.150;2022-08-19T21:12:50;15.45;;;5.32;;
49422;SDS011;36998;51.974;20.150;2022-08-19T21:15:17;11.18;;;6.03;;
49422;SDS011;36998;51.974;20.150;2022-08-19T21:17:43;12.45;;;6.10;;
49422;SDS011;36998;51.974;20.150;2022-08-19T21:20:10;11.00;;;5.47;;
49422;SDS011;36998;51.974;20.150;2022-08-19T21:22:36;10.63;;;5.50;;
49422;SDS011;36998;51.974;20.150;2022-08-19T21:25:02;7.28;;;5.43;;
49422;SDS011;36998;51.974;20.150;2022-08-19T21:27:29;9.98;;;5.45;;
49422;SDS011;36998;51.974;20.150;2022-08-19T21:29:55;13.82;;;5.40;;
49422;SDS011;36998;51.974;20.150;2022-08-19T21:32:21;10.25;;;5.45;;
49422;SDS011;36998;51.974;20.150;2022-08-19T21:34:47;14.00;;;4.97;;
49422;SDS011;36998;51.974;20.150;2022-08-19T21:37:14;10.50;;;5.38;;
49422;SDS011;36998;51.974;20.150;2022-08-19T21:39:40;9.13;;;5.25;;
49422;SDS011;36998;51.974;20.150;2022-08-19T21:42:06;12.88;;;5.55;;
49422;SDS011;36998;51.974;20.150;2022-08-19T21:44:32;12.68;;;5.22;;
49422;SDS011;36998;51.974;20.150;2022-08-19T21:47:01;10.73;;;4.97;;
49422;SDS011;36998;51.974;20.150;2022-08-19T21:51:56;11.05;;;5.60;;
49422;SDS011;36998;51.974;20.150;2022-08-19T21:54:22;15.68;;;6.18;;
49422;SDS011;36998;51.974;20.150;2022-08-19T21:56:47;9.27;;;5.32;;
49422;SDS011;36998;51.974;20.150;2022-08-19T21:59:13;9.00;;;5.57;;
49422;SDS011;36998;51.974;20.150;2022-08-19T22:01:38;10.98;;;5.90;;
49422;SDS011;36998;51.974;20.150;2022-08-19T22:04:05;18.52;;;5.90;;
49422;SDS011;36998;51.974;20.150;2022-08-19T22:06:31;11.00;;;5.90;;
49422;SDS011;36998;51.974;20.150;2022-08-19T22:08:56;10.98;;;6.13;;
49422;SDS011;36998;51.974;20.150;2022-08-19T22:11:22;11.23;;;6.10;;
49422;SDS011;36998;51.974;20.150;2022-08-19T22:13:50;9.60;;;6.13;;
49422;SDS011;36998;51.974;20.150;2022-08-19T22:16:21;18.50;;;6.22;;
49422;SDS011;36998;51.974;20.150;2022-08-19T22:18:47;12.32;;;6.45;;
49422;SDS011;36998;51.974;20.150;2022-08-19T22:21:15;18.58;;;6.22;;
49422;SDS011;36998;51.974;20.150;2022-08-19T22:23:41;9.82;;;6.47;;
49422;SDS011;36998;51.974;20.150;2022-08-19T22:26:09;12.93;;;6.32;;
49422;SDS011;36998;51.974;20.150;2022-08-19T22:28:35;13.35;;;7.38;;
49422;SDS011;36998;51.974;20.150;2022-08-19T22:31:01;14.25;;;6.35;;
49422;SDS011;36998;51.974;20.150;2022-08-19T22:33:27;11.05;;;6.90;;
49422;SDS011;36998;51.974;20.150;2022-08-19T22:35:54;11.55;;;6.75;;
49422;SDS011;36998;51.974;20.150;2022-08-19T22:38:20;13.80;;;6.85;;
49422;SDS011;36998;51.974;20.150;2022-08-19T22:40:50;10.32;;;6.88;;
49422;SDS011;36998;51.974;20.150;2022-08-19T22:43:27;12.68;;;6.47;;
49422;SDS011;36998;51.974;20.150;2022-08-19T22:46:01;13.88;;;6.72;;
49422;SDS011;36998;51.974;20.150;2022-08-19T22:48:27;16.08;;;7.18;;
49422;SDS011;36998;51.974;20.150;2022-08-19T22:50:57;14.25;;;7.20;;
49422;SDS011;36998;51.974;20.150;2022-08-19T22:53:43;13.93;;;7.20;;
49422;SDS011;36998;51.974;20.150;2022-08-19T22:56:10;12.63;;;8.35;;
49422;SDS011;36998;51.974;20.150;2022-08-19T22:58:37;13.55;;;7.63;;
49422;SDS011;36998;51.974;20.150;2022-08-19T23:01:02;10.35;;;6.90;;
49422;SDS011;36998;51.974;20.150;2022-08-19T23:03:29;12.38;;;7.07;;
49422;SDS011;36998;51.974;20.150;2022-08-19T23:05:54;12.43;;;7.25;;
49422;SDS011;36998;51.974;20.150;2022-08-19T23:08:20;12.30;;;7.57;;
49422;SDS011;36998;51.974;20.150;2022-08-19T23:10:47;15.98;;;7.28;;
49422;SDS011;36998;51.974;20.150;2022-08-19T23:13:13;14.32;;;6.88;;
49422;SDS011;36998;51.974;20.150;2022-08-19T23:15:41;13.38;;;7.40;;
49422;SDS011;36998;51.974;20.150;2022-08-19T23:18:08;14.70;;;7.32;;
49422;SDS011;36998;51.974;20.150;2022-08-19T23:20:35;20.85;;;7.38;;
49422;SDS011;36998;51.974;20.150;2022-08-19T23:23:03;16.30;;;7.70;;
49422;SDS011;36998;51.974;20.150;2022-08-19T23:25:31;14.15;;;8.48;;
49422;SDS011;36998;51.974;20.150;2022-08-19T23:27:58;19.25;;;7.95;;
49422;SDS011;36998;51.974;20.150;2022-08-19T23:30:43;16.42;;;7.95;;
49422;SDS011;36998;51.974;20.150;2022-08-19T23:33:14;15.00;;;7.68;;
49422;SDS011;36998;51.974;20.150;2022-08-19T23:35:45;13.27;;;7.68;;
49422;SDS011;36998;51.974;20.150;2022-08-19T23:38:11;13.52;;;8.25;;
49422;SDS011;36998;51.974;20.150;2022-08-19T23:40:37;12.43;;;7.85;;
49422;SDS011;36998;51.974;20.150;2022-08-19T23:43:05;11.85;;;8.10;;
49422;SDS011;36998;51.974;20.150;2022-08-19T23:45:31;14.35;;;7.60;;
49422;SDS011;36998;51.974;20.150;2022-08-19T23:47:57;10.65;;;7.78;;
49422;SDS011;36998;51.974;20.150;2022-08-19T23:50:23;18.17;;;9.10;;
49422;SDS011;36998;51.974;20.150;2022-08-19T23:52:55;18.95;;;10.13;;
49422;SDS011;36998;51.974;20.150;2022-08-19T23:55:24;19.65;;;9.80;;
49422;SDS011;36998;51.974;20.150;2022-08-19T23:57:53;17.65;;;9.75;;
